Details From SBGL - Galeao Antonio Carlos Jombim
To SBVT - Goiabeiras
Flight Number -
Tags generated
Created
Modified
Stats Distance 228 nm / 422 km
Max Altitude 23,500 ft / 7,163 m
Waypoints 4
Social Downloads 3
Likes 0
Share VATSIM

Download

Looking for another format? Having issues loading an existing format? Contact us
Advertisement - Login to hide

Notes

Basic altitude profile: - Ascent Rate: 2500ft/min - Ascent Speed: 250kts - Cruise Altitude: 35000ft - Cruise Speed: 450kts - Descent Rate: 1800ft/min - Descent Speed: 250kts Options: - Use NATs: yes - Use PACOTS: yes - Use low airways: no - Use high airways: yes

Route

SBGL PCX UL327 PANAS SBVT

ID Type Via Altitude Latitude Longitude Leg Dist Tot Dist Heading (true) Name
O SBGL APT - 0 ft / 0 m -22.80894˚ -43.24368˚ - 0 nm - Galeao Antonio Carlos Jombim
PCX VOR - 7,800 ft / 2,377 m -22.71533˚ -42.85750˚ 22 nm 22 nm 75° / 75° PORTO VOR-DME
PANAS FIX UL327 (AWY-HI) 23,500 ft / 7,163 m -21.46717˚ -41.53883˚ 104 nm 127 nm 45° / 44° -
O SBVT APT - 0 ft / 0 m -20.25561˚ -40.28889˚ 101 nm 228 nm 44° / 44° Goiabeiras

Altitude Profile

Advertisement - Login to hide

Weather


0- 5 10 15 20 25 30 35+ Temperature / ° C

Clouds and Precipitation
Forecast for 2017-12-17 06:00 UTC. Updated an hour ago

Ground ~20,000 ft ~40,000 ft Winds

SBGL

Details ICAO SBGL (GIG)
Name Galeao Antonio Carlos Jombim
Region Brazil
Timezone America/Sao_Paulo (UTC-2.0)
Stats Elevation 28 ft / 9 m (AMSL)
Location -22.808938° -43.243681°
Runways 2
Magnetic Variation 22.768° W

METAR

SBGL 170200Z 32003KT 9999 FEW030 25/22 Q1012

Decode

TAF

TAF SBGL 161945Z 1700/1806 04005KT CAVOK TN24/1708Z TX35/1717Z BECMG 1702/1704 01005KT BECMG 1705/1707 03005KT BECMG 1712/1714 12010KT 9999 FEW030 BECMG 1715/1717 15015KT BECMG 1721/1723 10010KT BECMG 1801/1803 01005KT BECMG 1804/1806 35005KT RMK PFV

Decode

Departure Runways

ID Width Length Bearing (true) Bearing (mag) Surface Threshold Offset Overrun Length
10 148 ft / 45 m 13,128 ft / 4,001 m 74.39° 97.16° Concrete 0 ft / 0 m 175 ft / 53 m
15 154 ft / 47 m 10,418 ft / 3,175 m 125.78° 148.55° Asphalt 0 ft / 0 m 185 ft / 56 m
28 148 ft / 45 m 13,128 ft / 4,001 m 254.38° 277.15° Concrete 0 ft / 0 m 175 ft / 53 m
33 154 ft / 47 m 10,418 ft / 3,175 m 305.78° 328.55° Asphalt 0 ft / 0 m 185 ft / 56 m

SBVT

Details ICAO SBVT (VIX)
Name Goiabeiras
Region Brazil
Timezone America/Sao_Paulo (UTC-2.0)
Stats Elevation 11 ft / 3 m (AMSL)
Location -20.255611° -40.288893°
Runways 1
Magnetic Variation 23.797° W

METAR

SBVT 170200Z 35008KT 9999 FEW020 25/23 Q1015

Decode

TAF

TAF SBVT 162200Z 1700/1724 36008KT 8000 SCT010 SCT030 TN23/1708Z TX30/1715Z BECMG 1713/1715 03015KT RMK PEU

Decode

Destination Runways

ID Width Length Bearing (true) Bearing (mag) Surface Threshold Offset Overrun Length
05 148 ft / 45 m 5,769 ft / 1,759 m 31.71° 55.51° Asphalt 0 ft / 0 m 189 ft / 58 m
23 148 ft / 45 m 5,769 ft / 1,759 m 211.71° 235.51° Asphalt 0 ft / 0 m 189 ft / 58 m

Popular Alternatives